sensor_id;sensor_type;location;lat;lon;timestamp;P1;durP1;ratioP1;P2;durP2;ratioP2
1218;SDS011;599;51.494;6.670;2022-08-21T00:00:17;9.32;;;4.50;;
1218;SDS011;599;51.494;6.670;2022-08-21T00:02:50;7.55;;;4.85;;
1218;SDS011;599;51.494;6.670;2022-08-21T00:05:24;5.28;;;4.70;;
1218;SDS011;599;51.494;6.670;2022-08-21T00:07:51;8.18;;;4.43;;
1218;SDS011;599;51.494;6.670;2022-08-21T00:10:18;7.00;;;4.85;;
1218;SDS011;599;51.494;6.670;2022-08-21T00:12:45;7.40;;;5.70;;
1218;SDS011;599;51.494;6.670;2022-08-21T00:15:12;4.97;;;3.92;;
1218;SDS011;599;51.494;6.670;2022-08-21T00:17:42;9.10;;;4.55;;
1218;SDS011;599;51.494;6.670;2022-08-21T00:20:09;6.10;;;4.87;;
1218;SDS011;599;51.494;6.670;2022-08-21T00:22:37;9.70;;;5.07;;
1218;SDS011;599;51.494;6.670;2022-08-21T00:25:06;10.80;;;4.93;;
1218;SDS011;599;51.494;6.670;2022-08-21T00:27:34;8.70;;;5.30;;
1218;SDS011;599;51.494;6.670;2022-08-21T00:30:00;5.50;;;5.00;;
1218;SDS011;599;51.494;6.670;2022-08-21T00:32:27;6.43;;;5.82;;
1218;SDS011;599;51.494;6.670;2022-08-21T00:34:53;7.70;;;5.03;;
1218;SDS011;599;51.494;6.670;2022-08-21T00:37:20;5.60;;;4.55;;
1218;SDS011;599;51.494;6.670;2022-08-21T00:39:46;5.20;;;4.50;;
1218;SDS011;599;51.494;6.670;2022-08-21T00:42:12;7.13;;;5.30;;
1218;SDS011;599;51.494;6.670;2022-08-21T00:44:45;9.05;;;5.30;;
1218;SDS011;599;51.494;6.670;2022-08-21T00:47:13;7.80;;;4.43;;
1218;SDS011;599;51.494;6.670;2022-08-21T00:49:39;9.87;;;5.17;;
1218;SDS011;599;51.494;6.670;2022-08-21T00:52:07;5.93;;;4.60;;
1218;SDS011;599;51.494;6.670;2022-08-21T00:54:39;7.72;;;4.45;;
1218;SDS011;599;51.494;6.670;2022-08-21T00:57:14;9.45;;;5.45;;
1218;SDS011;599;51.494;6.670;2022-08-21T00:59:46;8.88;;;5.72;;
1218;SDS011;599;51.494;6.670;2022-08-21T01:02:15;7.03;;;5.20;;
1218;SDS011;599;51.494;6.670;2022-08-21T01:04:42;10.32;;;5.13;;
1218;SDS011;599;51.494;6.670;2022-08-21T01:07:08;6.80;;;5.23;;
1218;SDS011;599;51.494;6.670;2022-08-21T01:09:35;6.70;;;5.75;;
1218;SDS011;599;51.494;6.670;2022-08-21T01:12:02;7.63;;;5.47;;
1218;SDS011;599;51.494;6.670;2022-08-21T01:14:29;10.85;;;6.65;;
1218;SDS011;599;51.494;6.670;2022-08-21T01:16:55;5.68;;;4.90;;
1218;SDS011;599;51.494;6.670;2022-08-21T01:19:23;9.57;;;6.32;;
1218;SDS011;599;51.494;6.670;2022-08-21T01:21:53;12.07;;;6.00;;
1218;SDS011;599;51.494;6.670;2022-08-21T01:24:20;8.77;;;6.88;;
1218;SDS011;599;51.494;6.670;2022-08-21T01:26:46;12.43;;;6.20;;
1218;SDS011;599;51.494;6.670;2022-08-21T01:29:58;12.68;;;7.65;;
1218;SDS011;599;51.494;6.670;2022-08-21T01:32:20;6.47;;;5.85;;
1218;SDS011;599;51.494;6.670;2022-08-21T01:34:47;11.90;;;6.63;;
1218;SDS011;599;51.494;6.670;2022-08-21T01:37:15;7.40;;;6.70;;
1218;SDS011;599;51.494;6.670;2022-08-21T01:39:42;8.57;;;6.55;;
1218;SDS011;599;51.494;6.670;2022-08-21T01:42:08;9.25;;;6.63;;
1218;SDS011;599;51.494;6.670;2022-08-21T01:44:34;9.35;;;6.95;;
1218;SDS011;599;51.494;6.670;2022-08-21T01:47:03;8.35;;;7.25;;
1218;SDS011;599;51.494;6.670;2022-08-21T01:49:32;8.50;;;6.75;;
1218;SDS011;599;51.494;6.670;2022-08-21T01:51:59;17.73;;;7.85;;
1218;SDS011;599;51.494;6.670;2022-08-21T01:54:26;9.73;;;7.30;;
1218;SDS011;599;51.494;6.670;2022-08-21T01:56:52;12.10;;;6.97;;
1218;SDS011;599;51.494;6.670;2022-08-21T01:59:20;9.90;;;6.72;;
1218;SDS011;599;51.494;6.670;2022-08-21T02:01:47;11.90;;;7.07;;
1218;SDS011;599;51.494;6.670;2022-08-21T02:04:14;9.32;;;7.70;;
1218;SDS011;599;51.494;6.670;2022-08-21T02:06:40;8.80;;;6.87;;
1218;SDS011;599;51.494;6.670;2022-08-21T02:09:07;9.10;;;7.60;;
1218;SDS011;599;51.494;6.670;2022-08-21T02:11:34;10.05;;;7.43;;
1218;SDS011;599;51.494;6.670;2022-08-21T02:14:05;12.63;;;7.70;;
1218;SDS011;599;51.494;6.670;2022-08-21T02:16:40;11.27;;;8.13;;
1218;SDS011;599;51.494;6.670;2022-08-21T02:19:08;8.55;;;7.22;;
1218;SDS011;599;51.494;6.670;2022-08-21T02:21:35;9.73;;;6.40;;
1218;SDS011;599;51.494;6.670;2022-08-21T02:24:01;14.33;;;6.80;;
1218;SDS011;599;51.494;6.670;2022-08-21T02:26:28;8.88;;;7.28;;
1218;SDS011;599;51.494;6.670;2022-08-21T02:28:53;10.17;;;7.50;;
1218;SDS011;599;51.494;6.670;2022-08-21T02:31:20;9.68;;;7.20;;
1218;SDS011;599;51.494;6.670;2022-08-21T02:33:45;8.73;;;7.20;;
1218;SDS011;599;51.494;6.670;2022-08-21T02:36:11;7.13;;;6.03;;
1218;SDS011;599;51.494;6.670;2022-08-21T02:38:39;9.90;;;6.30;;
1218;SDS011;599;51.494;6.670;2022-08-21T02:41:08;7.22;;;6.38;;
1218;SDS011;599;51.494;6.670;2022-08-21T02:43:41;12.45;;;7.53;;
1218;SDS011;599;51.494;6.670;2022-08-21T02:46:08;9.50;;;7.90;;
1218;SDS011;599;51.494;6.670;2022-08-21T02:48:37;10.15;;;7.35;;
1218;SDS011;599;51.494;6.670;2022-08-21T02:51:04;11.05;;;7.65;;
1218;SDS011;599;51.494;6.670;2022-08-21T02:53:37;9.48;;;8.13;;
1218;SDS011;599;51.494;6.670;2022-08-21T02:56:05;12.35;;;7.07;;
1218;SDS011;599;51.494;6.670;2022-08-21T02:58:35;9.77;;;8.07;;
1218;SDS011;599;51.494;6.670;2022-08-21T03:01:06;11.13;;;8.18;;
1218;SDS011;599;51.494;6.670;2022-08-21T03:03:36;11.65;;;7.90;;
1218;SDS011;599;51.494;6.670;2022-08-21T03:06:04;12.45;;;8.27;;
1218;SDS011;599;51.494;6.670;2022-08-21T03:08:33;13.32;;;8.40;;
1218;SDS011;599;51.494;6.670;2022-08-21T03:11:00;8.82;;;7.95;;
1218;SDS011;599;51.494;6.670;2022-08-21T03:13:28;9.35;;;8.45;;
1218;SDS011;599;51.494;6.670;2022-08-21T03:15:54;8.55;;;7.75;;
1218;SDS011;599;51.494;6.670;2022-08-21T03:18:21;9.30;;;7.80;;
1218;SDS011;599;51.494;6.670;2022-08-21T03:20:47;8.85;;;7.95;;
1218;SDS011;599;51.494;6.670;2022-08-21T03:23:14;14.75;;;8.30;;
1218;SDS011;599;51.494;6.670;2022-08-21T03:25:42;10.13;;;8.40;;
1218;SDS011;599;51.494;6.670;2022-08-21T03:28:10;9.45;;;8.38;;
1218;SDS011;599;51.494;6.670;2022-08-21T03:30:42;12.50;;;9.27;;
1218;SDS011;599;51.494;6.670;2022-08-21T03:33:11;11.25;;;8.77;;
1218;SDS011;599;51.494;6.670;2022-08-21T03:35:37;10.73;;;8.50;;
1218;SDS011;599;51.494;6.670;2022-08-21T03:38:03;10.87;;;9.60;;
1218;SDS011;599;51.494;6.670;2022-08-21T03:40:29;9.50;;;8.38;;
1218;SDS011;599;51.494;6.670;2022-08-21T03:42:55;11.73;;;10.53;;
1218;SDS011;599;51.494;6.670;2022-08-21T03:45:21;13.47;;;10.33;;
1218;SDS011;599;51.494;6.670;2022-08-21T03:47:57;10.87;;;9.77;;
1218;SDS011;599;51.494;6.670;2022-08-21T03:50:28;11.35;;;9.70;;
1218;SDS011;599;51.494;6.670;2022-08-21T03:52:58;10.55;;;9.55;;
1218;SDS011;599;51.494;6.670;2022-08-21T03:55:24;12.53;;;10.57;;
1218;SDS011;599;51.494;6.670;2022-08-21T03:57:51;10.82;;;9.93;;
1218;SDS011;599;51.494;6.670;2022-08-21T04:00:18;9.88;;;9.07;;
1218;SDS011;599;51.494;6.670;2022-08-21T04:02:44;13.00;;;10.57;;
1218;SDS011;599;51.494;6.670;2022-08-21T04:05:12;11.07;;;9.98;;
1218;SDS011;599;51.494;6.670;2022-08-21T04:07:52;13.07;;;10.57;;
1218;SDS011;599;51.494;6.670;2022-08-21T04:10:20;11.93;;;10.82;;
1218;SDS011;599;51.494;6.670;2022-08-21T04:12:46;12.10;;;10.93;;
1218;SDS011;599;51.494;6.670;2022-08-21T04:15:12;14.60;;;13.20;;
1218;SDS011;599;51.494;6.670;2022-08-21T04:17:38;12.77;;;11.57;;
1218;SDS011;599;51.494;6.670;2022-08-21T04:20:04;16.80;;;11.50;;
1218;SDS011;599;51.494;6.670;2022-08-21T04:22:31;14.52;;;11.52;;
1218;SDS011;599;51.494;6.670;2022-08-21T04:24:57;12.90;;;11.50;;
1218;SDS011;599;51.494;6.670;2022-08-21T04:27:23;11.27;;;9.97;;
1218;SDS011;599;51.494;6.670;2022-08-21T04:29:48;12.07;;;10.73;;
1218;SDS011;599;51.494;6.670;2022-08-21T04:32:20;12.93;;;11.63;;
1218;SDS011;599;51.494;6.670;2022-08-21T04:34:56;14.82;;;13.23;;
1218;SDS011;599;51.494;6.670;2022-08-21T04:37:29;14.00;;;12.55;;
1218;SDS011;599;51.494;6.670;2022-08-21T04:39:56;14.52;;;13.02;;
1218;SDS011;599;51.494;6.670;2022-08-21T04:42:25;15.10;;;13.68;;
1218;SDS011;599;51.494;6.670;2022-08-21T04:44:52;14.90;;;12.32;;
1218;SDS011;599;51.494;6.670;2022-08-21T04:47:20;15.40;;;13.93;;
1218;SDS011;599;51.494;6.670;2022-08-21T04:49:46;16.05;;;14.43;;
1218;SDS011;599;51.494;6.670;2022-08-21T04:52:13;19.90;;;15.88;;
1218;SDS011;599;51.494;6.670;2022-08-21T04:54:44;15.82;;;14.52;;
1218;SDS011;599;51.494;6.670;2022-08-21T04:57:12;17.13;;;15.32;;
1218;SDS011;599;51.494;6.670;2022-08-21T04:59:41;16.40;;;14.68;;
1218;SDS011;599;51.494;6.670;2022-08-21T05:02:11;16.70;;;15.00;;
1218;SDS011;599;51.494;6.670;2022-08-21T05:04:43;16.45;;;14.95;;
1218;SDS011;599;51.494;6.670;2022-08-21T05:07:15;17.52;;;15.80;;
1218;SDS011;599;51.494;6.670;2022-08-21T05:09:46;24.17;;;18.92;;
1218;SDS011;599;51.494;6.670;2022-08-21T05:12:12;19.75;;;17.77;;
1218;SDS011;599;51.494;6.670;2022-08-21T05:14:38;20.40;;;18.17;;
1218;SDS011;599;51.494;6.670;2022-08-21T05:17:04;25.80;;;19.13;;
1218;SDS011;599;51.494;6.670;2022-08-21T05:19:30;23.60;;;21.13;;
1218;SDS011;599;51.494;6.670;2022-08-21T05:21:56;27.00;;;21.00;;
1218;SDS011;599;51.494;6.670;2022-08-21T05:24:23;21.58;;;19.33;;
1218;SDS011;599;51.494;6.670;2022-08-21T05:26:49;20.80;;;18.75;;
1218;SDS011;599;51.494;6.670;2022-08-21T05:29:15;19.77;;;17.80;;
1218;SDS011;599;51.494;6.670;2022-08-21T05:31:42;19.80;;;17.92;;
1218;SDS011;599;51.494;6.670;2022-08-21T05:34:09;20.80;;;18.77;;
1218;SDS011;599;51.494;6.670;2022-08-21T05:36:35;21.83;;;19.13;;
1218;SDS011;599;51.494;6.670;2022-08-21T05:39:00;23.00;;;16.50;;
1218;SDS011;599;51.494;6.670;2022-08-21T05:41:27;19.33;;;16.05;;
1218;SDS011;599;51.494;6.670;2022-08-21T05:43:53;16.77;;;15.17;;
1218;SDS011;599;51.494;6.670;2022-08-21T05:46:19;15.20;;;13.70;;
1218;SDS011;599;51.494;6.670;2022-08-21T05:48:44;16.87;;;13.77;;
1218;SDS011;599;51.494;6.670;2022-08-21T05:51:12;14.82;;;12.75;;
1218;SDS011;599;51.494;6.670;2022-08-21T05:53:39;16.60;;;14.55;;
1218;SDS011;599;51.494;6.670;2022-08-21T05:56:07;14.25;;;12.93;;
1218;SDS011;599;51.494;6.670;2022-08-21T05:58:34;13.90;;;12.50;;
1218;SDS011;599;51.494;6.670;2022-08-21T06:01:01;17.90;;;13.05;;
1218;SDS011;599;51.494;6.670;2022-08-21T06:03:29;15.75;;;12.05;;
1218;SDS011;599;51.494;6.670;2022-08-21T06:05:59;12.95;;;11.35;;
1218;SDS011;599;51.494;6.670;2022-08-21T06:08:27;14.00;;;11.65;;
1218;SDS011;599;51.494;6.670;2022-08-21T06:10:54;13.02;;;11.75;;
1218;SDS011;599;51.494;6.670;2022-08-21T06:13:23;12.30;;;11.20;;
1218;SDS011;599;51.494;6.670;2022-08-21T06:16:00;16.52;;;12.38;;
1218;SDS011;599;51.494;6.670;2022-08-21T06:18:31;11.82;;;9.77;;
1218;SDS011;599;51.494;6.670;2022-08-21T06:20:59;12.15;;;10.77;;
1218;SDS011;599;51.494;6.670;2022-08-21T06:23:25;11.55;;;10.30;;
1218;SDS011;599;51.494;6.670;2022-08-21T06:25:52;12.30;;;11.10;;
1218;SDS011;599;51.494;6.670;2022-08-21T06:28:19;14.27;;;10.38;;
1218;SDS011;599;51.494;6.670;2022-08-21T06:30:45;16.80;;;11.00;;
1218;SDS011;599;51.494;6.670;2022-08-21T06:33:11;11.57;;;9.65;;
1218;SDS011;599;51.494;6.670;2022-08-21T06:35:38;13.85;;;9.52;;
1218;SDS011;599;51.494;6.670;2022-08-21T06:38:04;16.73;;;9.45;;
1218;SDS011;599;51.494;6.670;2022-08-21T06:40:31;11.60;;;9.45;;
1218;SDS011;599;51.494;6.670;2022-08-21T06:42:57;13.13;;;9.82;;
1218;SDS011;599;51.494;6.670;2022-08-21T06:45:31;9.70;;;8.45;;
1218;SDS011;599;51.494;6.670;2022-08-21T06:47:57;9.13;;;7.63;;
1218;SDS011;599;51.494;6.670;2022-08-21T06:50:24;9.52;;;8.52;;
1218;SDS011;599;51.494;6.670;2022-08-21T06:52:57;10.88;;;7.28;;
1218;SDS011;599;51.494;6.670;2022-08-21T06:55:30;14.13;;;7.57;;
1218;SDS011;599;51.494;6.670;2022-08-21T06:57:57;8.48;;;7.13;;
1218;SDS011;599;51.494;6.670;2022-08-21T07:00:24;13.23;;;7.40;;
1218;SDS011;599;51.494;6.670;2022-08-21T07:02:51;8.15;;;6.90;;
1218;SDS011;599;51.494;6.670;2022-08-21T07:05:17;10.32;;;6.05;;
1218;SDS011;599;51.494;6.670;2022-08-21T07:07:44;10.15;;;5.93;;
1218;SDS011;599;51.494;6.670;2022-08-21T07:10:11;11.02;;;6.40;;
1218;SDS011;599;51.494;6.670;2022-08-21T07:12:39;8.45;;;5.88;;
1218;SDS011;599;51.494;6.670;2022-08-21T07:15:06;11.90;;;6.50;;
1218;SDS011;599;51.494;6.670;2022-08-21T07:17:33;9.32;;;6.55;;
1218;SDS011;599;51.494;6.670;2022-08-21T07:20:00;11.55;;;5.90;;
1218;SDS011;599;51.494;6.670;2022-08-21T07:22:26;12.43;;;4.95;;
1218;SDS011;599;51.494;6.670;2022-08-21T07:24:54;8.60;;;5.20;;
1218;SDS011;599;51.494;6.670;2022-08-21T07:27:20;9.95;;;5.95;;
1218;SDS011;599;51.494;6.670;2022-08-21T07:29:47;7.07;;;4.32;;
1218;SDS011;599;51.494;6.670;2022-08-21T07:32:13;11.55;;;5.72;;
1218;SDS011;599;51.494;6.670;2022-08-21T07:34:40;8.40;;;4.28;;
1218;SDS011;599;51.494;6.670;2022-08-21T07:37:07;11.03;;;3.90;;
1218;SDS011;599;51.494;6.670;2022-08-21T07:39:33;11.73;;;4.63;;
1218;SDS011;599;51.494;6.670;2022-08-21T07:42:00;7.47;;;3.83;;
1218;SDS011;599;51.494;6.670;2022-08-21T07:44:28;6.80;;;3.30;;
1218;SDS011;599;51.494;6.670;2022-08-21T07:46:55;6.30;;;3.47;;
1218;SDS011;599;51.494;6.670;2022-08-21T07:49:21;7.50;;;2.83;;
1218;SDS011;599;51.494;6.670;2022-08-21T07:51:47;6.38;;;3.40;;
1218;SDS011;599;51.494;6.670;2022-08-21T07:54:14;7.30;;;3.60;;
1218;SDS011;599;51.494;6.670;2022-08-21T07:56:40;13.10;;;4.10;;
1218;SDS011;599;51.494;6.670;2022-08-21T07:59:06;8.43;;;3.87;;
1218;SDS011;599;51.494;6.670;2022-08-21T08:01:33;6.40;;;3.40;;
1218;SDS011;599;51.494;6.670;2022-08-21T08:03:59;7.10;;;3.30;;
1218;SDS011;599;51.494;6.670;2022-08-21T08:06:26;5.95;;;3.60;;
1218;SDS011;599;51.494;6.670;2022-08-21T08:08:52;12.27;;;4.07;;
1218;SDS011;599;51.494;6.670;2022-08-21T08:11:19;5.33;;;2.67;;
1218;SDS011;599;51.494;6.670;2022-08-21T08:13:46;6.17;;;2.60;;
1218;SDS011;599;51.494;6.670;2022-08-21T08:16:15;6.13;;;2.60;;
1218;SDS011;599;51.494;6.670;2022-08-21T08:18:42;5.40;;;2.63;;
1218;SDS011;599;51.494;6.670;2022-08-21T08:21:10;3.37;;;2.00;;
1218;SDS011;599;51.494;6.670;2022-08-21T08:23:37;4.67;;;2.47;;
1218;SDS011;599;51.494;6.670;2022-08-21T08:26:04;6.03;;;2.77;;
1218;SDS011;599;51.494;6.670;2022-08-21T08:28:31;6.77;;;2.70;;
1218;SDS011;599;51.494;6.670;2022-08-21T08:30:58;3.80;;;2.13;;
1218;SDS011;599;51.494;6.670;2022-08-21T08:33:26;5.63;;;2.50;;
1218;SDS011;599;51.494;6.670;2022-08-21T08:35:53;4.97;;;2.23;;
1218;SDS011;599;51.494;6.670;2022-08-21T08:38:20;5.87;;;2.67;;
1218;SDS011;599;51.494;6.670;2022-08-21T08:43:44;5.73;;;2.93;;
1218;SDS011;599;51.494;6.670;2022-08-21T08:46:19;6.30;;;2.00;;
1218;SDS011;599;51.494;6.670;2022-08-21T08:49:00;5.93;;;2.30;;
1218;SDS011;599;51.494;6.670;2022-08-21T08:51:46;9.13;;;2.83;;
1218;SDS011;599;51.494;6.670;2022-08-21T08:54:25;5.80;;;2.50;;
1218;SDS011;599;51.494;6.670;2022-08-21T08:56:59;7.43;;;1.97;;
1218;SDS011;599;51.494;6.670;2022-08-21T08:59:32;10.63;;;2.27;;
1218;SDS011;599;51.494;6.670;2022-08-21T09:02:05;6.80;;;2.47;;
1218;SDS011;599;51.494;6.670;2022-08-21T09:04:31;7.20;;;2.00;;
1218;SDS011;599;51.494;6.670;2022-08-21T09:16:40;5.50;;;2.20;;
1218;SDS011;599;51.494;6.670;2022-08-21T09:20:02;6.00;;;2.50;;
1218;SDS011;599;51.494;6.670;2022-08-21T09:28:37;6.67;;;2.37;;
1218;SDS011;599;51.494;6.670;2022-08-21T09:31:07;5.23;;;2.70;;
1218;SDS011;599;51.494;6.670;2022-08-21T09:33:47;7.37;;;2.97;;
1218;SDS011;599;51.494;6.670;2022-08-21T09:36:22;5.50;;;2.33;;
1218;SDS011;599;51.494;6.670;2022-08-21T09:39:02;7.70;;;2.87;;
1218;SDS011;599;51.494;6.670;2022-08-21T09:41:29;7.50;;;3.27;;
1218;SDS011;599;51.494;6.670;2022-08-21T09:44:01;7.37;;;3.50;;
1218;SDS011;599;51.494;6.670;2022-08-21T09:46:28;8.03;;;2.47;;
1218;SDS011;599;51.494;6.670;2022-08-21T09:48:56;7.87;;;3.10;;
1218;SDS011;599;51.494;6.670;2022-08-21T09:51:30;2.50;;;2.00;;
1218;SDS011;599;51.494;6.670;2022-08-21T09:56:33;5.70;;;2.50;;
1218;SDS011;599;51.494;6.670;2022-08-21T10:01:56;7.27;;;3.30;;
1218;SDS011;599;51.494;6.670;2022-08-21T10:07:08;6.63;;;2.37;;
1218;SDS011;599;51.494;6.670;2022-08-21T10:09:37;6.73;;;2.50;;
1218;SDS011;599;51.494;6.670;2022-08-21T10:20:44;11.30;;;2.43;;
1218;SDS011;599;51.494;6.670;2022-08-21T10:23:25;8.13;;;2.87;;
1218;SDS011;599;51.494;6.670;2022-08-21T10:46:19;4.07;;;1.63;;
1218;SDS011;599;51.494;6.670;2022-08-21T10:52:20;2.80;;;1.27;;
1218;SDS011;599;51.494;6.670;2022-08-21T11:00:12;3.90;;;1.40;;
1218;SDS011;599;51.494;6.670;2022-08-21T11:02:46;3.20;;;1.23;;
1218;SDS011;599;51.494;6.670;2022-08-21T11:08:11;8.93;;;1.83;;
1218;SDS011;599;51.494;6.670;2022-08-21T11:19:02;4.17;;;1.70;;
1218;SDS011;599;51.494;6.670;2022-08-21T11:30:13;3.30;;;1.30;;
1218;SDS011;599;51.494;6.670;2022-08-21T11:35:58;2.97;;;1.30;;
1218;SDS011;599;51.494;6.670;2022-08-21T11:39:00;2.90;;;1.10;;
1218;SDS011;599;51.494;6.670;2022-08-21T11:41:40;14.77;;;13.30;;
1218;SDS011;599;51.494;6.670;2022-08-21T11:44:29;2.50;;;1.60;;
1218;SDS011;599;51.494;6.670;2022-08-21T11:47:22;3.67;;;1.27;;
1218;SDS011;599;51.494;6.670;2022-08-21T11:50:26;3.60;;;1.47;;
1218;SDS011;599;51.494;6.670;2022-08-21T11:52:55;2.90;;;1.17;;
1218;SDS011;599;51.494;6.670;2022-08-21T11:55:40;3.00;;;1.20;;
1218;SDS011;599;51.494;6.670;2022-08-21T12:01:07;5.13;;;1.73;;
1218;SDS011;599;51.494;6.670;2022-08-21T12:03:52;4.83;;;1.37;;
1218;SDS011;599;51.494;6.670;2022-08-21T12:06:45;3.10;;;1.33;;
1218;SDS011;599;51.494;6.670;2022-08-21T12:11:59;3.83;;;1.57;;
1218;SDS011;599;51.494;6.670;2022-08-21T12:14:44;4.37;;;1.10;;
1218;SDS011;599;51.494;6.670;2022-08-21T12:17:20;4.40;;;1.43;;
1218;SDS011;599;51.494;6.670;2022-08-21T12:19:59;6.13;;;1.77;;
1218;SDS011;599;51.494;6.670;2022-08-21T12:22:47;5.33;;;1.80;;
1218;SDS011;599;51.494;6.670;2022-08-21T12:25:39;8.30;;;1.67;;
1218;SDS011;599;51.494;6.670;2022-08-21T12:28:13;3.43;;;1.43;;
1218;SDS011;599;51.494;6.670;2022-08-21T12:30:47;4.57;;;1.27;;
1218;SDS011;599;51.494;6.670;2022-08-21T12:36:01;5.50;;;1.70;;
1218;SDS011;599;51.494;6.670;2022-08-21T12:38:47;6.33;;;1.90;;
1218;SDS011;599;51.494;6.670;2022-08-21T12:41:24;4.17;;;1.30;;
1218;SDS011;599;51.494;6.670;2022-08-21T12:44:01;6.63;;;2.17;;
1218;SDS011;599;51.494;6.670;2022-08-21T12:46:55;6.13;;;1.40;;
1218;SDS011;599;51.494;6.670;2022-08-21T12:50:04;4.10;;;1.40;;
1218;SDS011;599;51.494;6.670;2022-08-21T12:52:40;3.50;;;1.27;;
1218;SDS011;599;51.494;6.670;2022-08-21T12:55:26;5.00;;;2.30;;
1218;SDS011;599;51.494;6.670;2022-08-21T12:57:56;3.63;;;1.57;;
1218;SDS011;599;51.494;6.670;2022-08-21T13:00:23;6.00;;;1.53;;
1218;SDS011;599;51.494;6.670;2022-08-21T13:02:52;4.20;;;1.40;;
1218;SDS011;599;51.494;6.670;2022-08-21T13:05:34;3.17;;;1.20;;
1218;SDS011;599;51.494;6.670;2022-08-21T13:08:05;4.27;;;1.70;;
1218;SDS011;599;51.494;6.670;2022-08-21T13:10:33;3.53;;;1.47;;
1218;SDS011;599;51.494;6.670;2022-08-21T13:13:05;4.27;;;1.57;;
1218;SDS011;599;51.494;6.670;2022-08-21T13:15:37;3.57;;;1.73;;
1218;SDS011;599;51.494;6.670;2022-08-21T13:18:06;3.10;;;1.70;;
1218;SDS011;599;51.494;6.670;2022-08-21T13:20:39;5.73;;;2.37;;
1218;SDS011;599;51.494;6.670;2022-08-21T13:23:16;3.33;;;1.60;;
1218;SDS011;599;51.494;6.670;2022-08-21T13:25:49;4.27;;;1.30;;
1218;SDS011;599;51.494;6.670;2022-08-21T13:28:15;4.70;;;1.47;;
1218;SDS011;599;51.494;6.670;2022-08-21T13:30:42;2.10;;;1.03;;
1218;SDS011;599;51.494;6.670;2022-08-21T13:33:29;3.97;;;1.47;;
1218;SDS011;599;51.494;6.670;2022-08-21T13:36:01;2.67;;;1.20;;
1218;SDS011;599;51.494;6.670;2022-08-21T13:38:45;3.83;;;1.30;;
1218;SDS011;599;51.494;6.670;2022-08-21T13:43:43;4.70;;;2.13;;
1218;SDS011;599;51.494;6.670;2022-08-21T13:46:14;4.00;;;1.50;;
1218;SDS011;599;51.494;6.670;2022-08-21T13:48:42;3.73;;;1.20;;
1218;SDS011;599;51.494;6.670;2022-08-21T13:51:09;4.90;;;1.77;;
1218;SDS011;599;51.494;6.670;2022-08-21T13:53:36;3.20;;;1.20;;
1218;SDS011;599;51.494;6.670;2022-08-21T13:56:25;4.50;;;1.23;;
1218;SDS011;599;51.494;6.670;2022-08-21T13:58:58;4.03;;;1.57;;
1218;SDS011;599;51.494;6.670;2022-08-21T14:01:28;9.57;;;1.50;;
1218;SDS011;599;51.494;6.670;2022-08-21T14:04:04;4.83;;;1.50;;
1218;SDS011;599;51.494;6.670;2022-08-21T14:06:41;4.27;;;1.90;;
1218;SDS011;599;51.494;6.670;2022-08-21T14:09:09;4.20;;;1.47;;
1218;SDS011;599;51.494;6.670;2022-08-21T14:11:40;5.70;;;2.37;;
1218;SDS011;599;51.494;6.670;2022-08-21T14:17:04;3.53;;;1.40;;
1218;SDS011;599;51.494;6.670;2022-08-21T14:19:50;3.80;;;1.67;;
1218;SDS011;599;51.494;6.670;2022-08-21T14:22:37;5.43;;;1.60;;
1218;SDS011;599;51.494;6.670;2022-08-21T14:27:44;7.07;;;1.43;;
1218;SDS011;599;51.494;6.670;2022-08-21T14:30:28;8.93;;;1.90;;
1218;SDS011;599;51.494;6.670;2022-08-21T14:32:58;4.73;;;2.30;;
1218;SDS011;599;51.494;6.670;2022-08-21T14:35:25;5.43;;;1.40;;
1218;SDS011;599;51.494;6.670;2022-08-21T14:37:52;5.43;;;1.83;;
1218;SDS011;599;51.494;6.670;2022-08-21T14:40:19;3.00;;;1.50;;
1218;SDS011;599;51.494;6.670;2022-08-21T14:42:48;4.50;;;1.60;;
1218;SDS011;599;51.494;6.670;2022-08-21T14:45:16;8.40;;;4.80;;
1218;SDS011;599;51.494;6.670;2022-08-21T14:47:51;9.10;;;2.33;;
1218;SDS011;599;51.494;6.670;2022-08-21T14:50:18;8.30;;;2.20;;
1218;SDS011;599;51.494;6.670;2022-08-21T14:52:44;4.00;;;2.13;;
1218;SDS011;599;51.494;6.670;2022-08-21T14:55:11;2.53;;;1.30;;
1218;SDS011;599;51.494;6.670;2022-08-21T14:57:40;6.40;;;1.60;;
1218;SDS011;599;51.494;6.670;2022-08-21T15:00:13;3.70;;;1.73;;
1218;SDS011;599;51.494;6.670;2022-08-21T15:02:43;5.17;;;1.60;;
1218;SDS011;599;51.494;6.670;2022-08-21T15:05:10;5.83;;;1.60;;
1218;SDS011;599;51.494;6.670;2022-08-21T15:07:36;2.90;;;1.40;;
1218;SDS011;599;51.494;6.670;2022-08-21T15:10:03;3.70;;;1.80;;
1218;SDS011;599;51.494;6.670;2022-08-21T15:12:30;4.63;;;1.30;;
1218;SDS011;599;51.494;6.670;2022-08-21T15:14:56;4.70;;;1.27;;
1218;SDS011;599;51.494;6.670;2022-08-21T15:17:22;4.67;;;1.57;;
1218;SDS011;599;51.494;6.670;2022-08-21T15:19:48;11.80;;;2.10;;
1218;SDS011;599;51.494;6.670;2022-08-21T15:22:14;5.20;;;1.33;;
1218;SDS011;599;51.494;6.670;2022-08-21T15:24:40;4.97;;;1.33;;
1218;SDS011;599;51.494;6.670;2022-08-21T15:27:07;7.10;;;1.67;;
1218;SDS011;599;51.494;6.670;2022-08-21T15:29:35;5.40;;;1.40;;
1218;SDS011;599;51.494;6.670;2022-08-21T15:32:15;5.27;;;1.80;;
1218;SDS011;599;51.494;6.670;2022-08-21T15:34:52;3.90;;;1.77;;
1218;SDS011;599;51.494;6.670;2022-08-21T15:37:19;3.10;;;1.33;;
1218;SDS011;599;51.494;6.670;2022-08-21T15:39:46;4.57;;;1.57;;
1218;SDS011;599;51.494;6.670;2022-08-21T15:42:14;3.93;;;1.13;;
1218;SDS011;599;51.494;6.670;2022-08-21T15:44:40;4.33;;;1.67;;
1218;SDS011;599;51.494;6.670;2022-08-21T15:47:18;3.07;;;1.37;;
1218;SDS011;599;51.494;6.670;2022-08-21T15:49:56;4.93;;;1.60;;
1218;SDS011;599;51.494;6.670;2022-08-21T15:52:22;2.97;;;1.30;;
1218;SDS011;599;51.494;6.670;2022-08-21T15:54:48;8.80;;;2.57;;
1218;SDS011;599;51.494;6.670;2022-08-21T15:57:16;2.30;;;1.43;;
1218;SDS011;599;51.494;6.670;2022-08-21T15:59:49;3.83;;;1.50;;
1218;SDS011;599;51.494;6.670;2022-08-21T16:02:39;3.90;;;1.50;;
1218;SDS011;599;51.494;6.670;2022-08-21T16:05:09;2.97;;;1.23;;
1218;SDS011;599;51.494;6.670;2022-08-21T16:07:37;4.40;;;1.53;;
1218;SDS011;599;51.494;6.670;2022-08-21T16:10:05;5.43;;;1.30;;
1218;SDS011;599;51.494;6.670;2022-08-21T16:12:34;3.70;;;1.73;;
1218;SDS011;599;51.494;6.670;2022-08-21T16:15:06;3.40;;;1.40;;
1218;SDS011;599;51.494;6.670;2022-08-21T16:17:36;6.47;;;1.87;;
1218;SDS011;599;51.494;6.670;2022-08-21T16:20:08;3.37;;;1.57;;
1218;SDS011;599;51.494;6.670;2022-08-21T16:22:38;3.70;;;1.30;;
1218;SDS011;599;51.494;6.670;2022-08-21T16:25:05;3.17;;;1.20;;
1218;SDS011;599;51.494;6.670;2022-08-21T16:27:31;3.93;;;1.37;;
1218;SDS011;599;51.494;6.670;2022-08-21T16:29:58;9.03;;;2.20;;
1218;SDS011;599;51.494;6.670;2022-08-21T16:32:25;2.60;;;1.53;;
1218;SDS011;599;51.494;6.670;2022-08-21T16:34:51;3.33;;;1.63;;
1218;SDS011;599;51.494;6.670;2022-08-21T16:37:17;2.80;;;1.40;;
1218;SDS011;599;51.494;6.670;2022-08-21T16:39:43;3.90;;;1.63;;
1218;SDS011;599;51.494;6.670;2022-08-21T16:42:11;2.57;;;1.60;;
1218;SDS011;599;51.494;6.670;2022-08-21T16:44:40;4.67;;;1.70;;
1218;SDS011;599;51.494;6.670;2022-08-21T16:47:06;5.67;;;1.60;;
1218;SDS011;599;51.494;6.670;2022-08-21T16:49:33;4.47;;;1.67;;
1218;SDS011;599;51.494;6.670;2022-08-21T16:51:59;4.13;;;2.20;;
1218;SDS011;599;51.494;6.670;2022-08-21T16:54:25;3.40;;;1.87;;
1218;SDS011;599;51.494;6.670;2022-08-21T16:56:51;4.87;;;1.87;;
1218;SDS011;599;51.494;6.670;2022-08-21T16:59:17;4.20;;;1.87;;
1218;SDS011;599;51.494;6.670;2022-08-21T17:01:43;4.83;;;2.00;;
1218;SDS011;599;51.494;6.670;2022-08-21T17:04:10;7.33;;;2.03;;
1218;SDS011;599;51.494;6.670;2022-08-21T17:06:36;4.10;;;2.07;;
1218;SDS011;599;51.494;6.670;2022-08-21T17:09:02;4.07;;;2.03;;
1218;SDS011;599;51.494;6.670;2022-08-21T17:14:01;3.20;;;2.20;;
1218;SDS011;599;51.494;6.670;2022-08-21T17:16:40;5.93;;;2.33;;
1218;SDS011;599;51.494;6.670;2022-08-21T17:19:10;3.40;;;2.73;;
1218;SDS011;599;51.494;6.670;2022-08-21T17:21:37;5.00;;;3.30;;
1218;SDS011;599;51.494;6.670;2022-08-21T17:24:03;4.33;;;2.27;;
1218;SDS011;599;51.494;6.670;2022-08-21T17:26:29;5.00;;;2.73;;